Time;durP1;ratioP1;P1;durP2;ratioP2;P2;SDS_P1;SDS_P2;PMS_P1;PMS_P2;Temp;Humidity;BMP_temperature;BMP_pressure;BME280_temperature;BME280_humidity;BME280_pressure;Samples;Min_cycle;Max_cycle;Signal;HPM_P1;HPM_P2
2022/07/25 03:34:12;;;;;;;;;;;;;;;12.47;100.00;99165.91;6262561;22;19924;-91
2022/07/25 03:36:37;;;;;;;;;;;;;;;12.44;100.00;99164.25;6127137;22;19925;-94
2022/07/25 03:39:43;;;;;;;;;;;;;;;12.53;100.00;99165.53;6127548;23;19920;-96
2022/07/25 03:42:40;;;;;;;;;;;;;;;;;;;;;
2022/07/25 03:51:47;;;;;;;;;;;;;;;12.57;100.00;99160.88;6153306;22;20019;-91
2022/07/25 03:54:25;;;;;;;;;;;;;;;;;;;;;
2022/07/25 03:57:02;;;;;;;;;;;;;;;12.56;100.00;99161.81;6151459;23;20003;-93
2022/07/25 03:59:30;;;;;;;;;;;;;;;12.71;100.00;99148.44;6125976;23;19962;-94
2022/07/25 04:02:44;;;;;;;;;;;;;;;;;;;;;
2022/07/25 04:05:44;;;;;;;;;;;;;;;;;;;;;
2022/07/25 04:11:37;;;;;;;;;;;;;;;;;;;;;
2022/07/25 04:17:10;;;;;;;;;;;;;;;12.61;100.00;99139.34;6213008;23;19916;-93
2022/07/25 04:19:36;;;;;;;;;;;;;;;12.64;100.00;99133.00;6118879;23;20239;-93
2022/07/25 04:22:03;;;;;;;;;;;;;;;12.61;100.00;99133.16;6127735;23;19923;-95
2022/07/25 04:24:57;;;;;;;;;;;;;;;;;;;;;
2022/07/25 08:02:09;;;;;;;;;;;;;;;;;;;;;
2022/07/25 08:04:49;;;;;;;;;;;;;;;12.82;100.00;99044.09;6303620;22;19923;-94
2022/07/25 08:07:17;;;;;;;;;;;;;;;12.86;100.00;99045.63;6279965;22;19998;-92
2022/07/25 08:09:42;;;;;;;;;;;;;;;12.72;100.00;99048.31;6308778;22;19961;-92
2022/07/25 08:12:07;;;;;;;;;;;;;;;12.78;100.00;99034.63;6280151;22;19919;-92
2022/07/25 08:14:40;;;;;;;;;;;;;;;12.90;100.00;99036.47;6308223;22;19915;-94
2022/07/25 08:17:05;;;;;;;;;;;;;;;12.82;100.00;99037.94;6281069;22;19911;-92
2022/07/25 08:19:33;;;;;;;;;;;;;;;12.72;100.00;99030.53;6281082;22;19956;-93
2022/07/25 08:21:58;;;;;;;;;;;;;;;12.73;100.00;99036.69;6307648;22;19971;-92
2022/07/25 08:24:24;;;;;;;;;;;;;;;12.90;100.00;99031.16;6307947;22;19911;-93
2022/07/25 08:26:49;;;;;;;;;;;;;;;12.88;100.00;99038.38;6306933;22;19915;-92
2022/07/25 08:29:17;;;;;;;;;;;;;;;12.90;100.00;99033.81;6307888;22;19911;-93
2022/07/25 08:31:42;;;;;;;;;;;;;;;13.03;100.00;99030.38;6281055;22;19914;-94
2022/07/25 08:34:08;;;;;;;;;;;;;;;12.96;100.00;99029.09;6308530;22;19917;-94
2022/07/25 08:36:40;;;;;;;;;;;;;;;12.85;100.00;99019.97;6279304;22;19911;-92
2022/07/25 08:39:13;;;;;;;;;;;;;;;12.84;100.00;99022.72;6307804;22;19942;-93
2022/07/25 08:41:40;;;;;;;;;;;;;;;12.97;100.00;99021.00;6306202;22;20032;-93
2022/07/25 08:44:07;;;;;;;;;;;;;;;12.90;100.00;99022.34;6280845;22;19915;-93
2022/07/25 08:46:32;;;;;;;;;;;;;;;12.80;100.00;99018.59;6280365;22;20388;-93
2022/07/25 08:48:58;;;;;;;;;;;;;;;12.88;100.00;99019.78;6280776;22;19907;-93
2022/07/25 08:51:27;;;;;;;;;;;;;;;13.01;100.00;99024.31;6307556;22;20283;-91
2022/07/25 08:54:04;;;;;;;;;;;;;;;12.93;100.00;99013.31;6281053;22;19941;-93
2022/07/25 08:56:32;;;;;;;;;;;;;;;12.86;100.00;99012.84;6305975;22;19918;-93
2022/07/25 08:58:57;;;;;;;;;;;;;;;13.07;100.00;99023.91;6308127;22;19911;-92
2022/07/25 09:01:26;;;;;;;;;;;;;;;13.02;100.00;99021.56;6307436;22;19926;-94
2022/07/25 09:04:00;;;;;;;;;;;;;;;13.01;100.00;99011.00;6226553;22;19925;-92
2022/07/25 09:06:25;;;;;;;;;;;;;;;13.04;100.00;99005.50;6125305;23;19917;-92
2022/07/25 09:08:53;;;;;;;;;;;;;;;13.10;100.00;99007.75;6125460;23;20423;-93
2022/07/25 09:11:32;;;;;;;;;;;;;;;13.06;100.00;99008.91;6124655;23;19948;-93
2022/07/25 09:14:03;;;;;;;;;;;;;;;12.99;100.00;99012.94;6125352;23;19936;-93
2022/07/25 09:16:30;;;;;;;;;;;;;;;13.12;100.00;99002.34;6125559;23;20288;-93
2022/07/25 09:19:04;;;;;;;;;;;;;;;13.10;100.00;99002.44;6124999;23;19958;-93
2022/07/25 09:21:30;;;;;;;;;;;;;;;13.04;100.00;99000.19;6125442;23;19923;-92
2022/07/25 09:24:13;;;;;;;;;;;;;;;13.30;100.00;99000.25;6125159;23;19912;-92
2022/07/25 09:26:51;;;;;;;;;;;;;;;13.25;100.00;99004.06;6123841;23;20018;-93
2022/07/25 09:29:22;;;;;;;;;;;;;;;13.13;100.00;99004.91;6124816;23;19912;-92
2022/07/25 09:31:50;;;;;;;;;;;;;;;13.17;100.00;99011.69;6124629;23;19924;-92
2022/07/25 09:34:16;;;;;;;;;;;;;;;13.27;100.00;99006.63;6125089;23;19962;-93
2022/07/25 09:36:54;;;;;;;;;;;;;;;13.18;100.00;99007.22;6124950;23;19919;-93
2022/07/25 09:40:07;;;;;;;;;;;;;;;;;;;;;
2022/07/25 09:43:24;;;;;;;;;;;;;;;;;;;;;
2022/07/25 09:45:28;;;;;;;;;;;;;;;13.35;100.00;99012.31;6127579;23;19913;-92
2022/07/25 09:48:13;;;;;;;;;;;;;;;;;;;;;
2022/07/25 09:50:43;;;;;;;;;;;;;;;13.23;100.00;99011.31;6150337;23;20506;-93
2022/07/25 09:53:32;;;;;;;;;;;;;;;13.39;100.00;99002.34;6123043;23;19913;-93
2022/07/25 09:55:57;;;;;;;;;;;;;;;13.39;100.00;99005.00;6212541;23;19938;-92
2022/07/25 10:05:08;;;;;;;;;;;;;;;13.30;100.00;99001.09;6122969;23;20016;-92
2022/07/25 10:07:36;;;;;;;;;;;;;;;13.49;100.00;99008.75;6150625;23;19917;-92
2022/07/25 10:10:42;;;;;;;;;;;;;;;13.38;100.00;98988.16;6153551;23;19943;-92
2022/07/25 10:16:17;;;;;;;;;;;;;;;13.30;100.00;98993.13;6146845;22;20000;-94
2022/07/25 10:19:14;;;;;;;;;;;;;;;13.44;100.00;98993.09;6125917;22;19913;-95
2022/07/25 10:21:53;;;;;;;;;;;;;;;13.46;100.00;98994.81;6149968;22;19924;-92
2022/07/25 10:24:31;;;;;;;;;;;;;;;13.42;100.00;98996.81;6124450;23;19924;-94
2022/07/25 10:26:59;;;;;;;;;;;;;;;13.35;100.00;98995.50;6123729;23;20286;-95
2022/07/25 10:32:54;;;;;;;;;;;;;;;13.51;100.00;98998.00;6211284;23;19912;-95
2022/07/25 10:35:32;;;;;;;;;;;;;;;13.41;100.00;99000.44;6211100;23;19962;-91
2022/07/25 10:43:56;;;;;;;;;;;;;;;13.51;100.00;99017.47;6147973;22;19935;-91
2022/07/25 10:46:42;;;;;;;;;;;;;;;13.49;100.00;99016.72;6124372;23;19916;-93
2022/07/25 10:49:24;;;;;;;;;;;;;;;13.47;100.00;99021.31;6124969;23;19991;-94
2022/07/25 10:52:25;;;;;;;;;;;;;;;;;;;;;
2022/07/25 10:58:06;;;;;;;;;;;;;;;13.49;100.00;99019.38;6210242;23;20750;-94
2022/07/25 11:00:52;;;;;;;;;;;;;;;13.37;100.00;99014.88;6185366;23;19916;-93
2022/07/25 11:03:19;;;;;;;;;;;;;;;13.59;100.00;99023.16;6124571;23;19923;-93
2022/07/25 11:05:53;;;;;;;;;;;;;;;13.55;100.00;99024.31;6150571;23;19995;-92
2022/07/25 11:08:40;;;;;;;;;;;;;;;13.48;100.00;99024.81;6122847;23;20309;-92
2022/07/25 11:11:06;;;;;;;;;;;;;;;13.42;100.00;99029.59;6135537;23;19916;-93
2022/07/25 11:16:58;;;;;;;;;;;;;;;13.55;100.00;99032.28;6211426;23;19912;-93
2022/07/25 11:19:28;;;;;;;;;;;;;;;13.53;100.00;99028.00;6185875;23;20364;-93
2022/07/25 11:21:55;;;;;;;;;;;;;;;13.47;100.00;99033.78;6154831;22;19920;-93
2022/07/25 11:24:21;;;;;;;;;;;;;;;13.62;100.00;99028.28;6124963;23;19920;-93
2022/07/25 11:26:52;;;;;;;;;;;;;;;13.49;100.00;99035.34;6123353;23;20343;-93
2022/07/25 11:29:27;;;;;;;;;;;;;;;13.46;100.00;99027.56;6124630;23;19919;-93
2022/07/25 11:35:12;;;;;;;;;;;;;;;13.62;100.00;99025.59;6135933;23;19920;-94
2022/07/25 11:38:14;;;;;;;;;;;;;;;13.55;100.00;99021.63;6123828;23;20381;-94
2022/07/25 11:40:53;;;;;;;;;;;;;;;;;;;;;
2022/07/25 11:43:19;;;;;;;;;;;;;;;13.61;100.00;99020.38;6150626;23;19956;-93
2022/07/25 11:46:07;;;;;;;;;;;;;;;;;;;;;
2022/07/25 11:48:38;;;;;;;;;;;;;;;13.63;100.00;99021.97;6150832;23;20399;-93
2022/07/25 11:51:37;;;;;;;;;;;;;;;13.52;100.00;99019.19;6150060;23;19923;-93
2022/07/25 11:54:26;;;;;;;;;;;;;;;13.65;100.00;99010.38;6136700;23;19912;-94
2022/07/25 11:57:11;;;;;;;;;;;;;;;13.78;100.00;99009.41;6130222;23;20309;-93
2022/07/25 12:00:17;;;;;;;;;;;;;;;13.70;100.00;99002.94;6153514;23;19920;-94
2022/07/25 12:05:48;;;;;;;;;;;;;;;13.55;100.00;99015.47;6149047;22;19921;-95
2022/07/25 12:08:31;;;;;;;;;;;;;;;13.73;100.00;99013.38;6127841;23;19916;-92
2022/07/25 12:19:38;;;;;;;;;;;;;;;13.73;100.00;99024.84;6339269;22;19918;-95
2022/07/25 12:22:03;;;;;;;;;;;;;;;13.80;100.00;99018.19;6313277;22;19915;-93
2022/07/25 12:24:49;;;;;;;;;;;;;;;13.71;100.00;99016.13;6312794;22;19911;-95
2022/07/25 12:27:39;;;;;;;;;;;;;;;13.70;100.00;99032.22;6310381;22;20278;-92
2022/07/25 13:03:29;;;;;;;;;;;;;;;;;;;;;
2022/07/25 13:29:56;;;;;;;;;;;;;;;;;;;;;
2022/07/25 14:06:21;;;;;;;;;;;;;;;13.79;100.00;99136.28;6339258;22;19923;-94
2022/07/25 14:20:22;;;;;;;;;;;;;;;13.81;100.00;99133.50;6209649;23;19970;-94
2022/07/25 15:37:13;;;;;;;;;;;;;;;13.85;100.00;99198.94;6151080;23;20077;-94
2022/07/25 15:59:09;;;;;;;;;;;;;;;13.89;100.00;99189.75;6173296;23;20431;-92
2022/07/25 16:05:16;;;;;;;;;;;;;;;13.98;100.00;99188.31;6151344;23;19920;-90
2022/07/25 16:08:06;;;;;;;;;;;;;;;14.04;100.00;99187.91;6122986;23;19942;-91
2022/07/25 16:23:13;;;;;;;;;;;;;;;;;;;;;
2022/07/25 16:28:54;;;;;;;;;;;;;;;13.86;100.00;99205.94;6150883;22;19920;-94
2022/07/25 16:31:30;;;;;;;;;;;;;;;13.89;100.00;99195.09;6125138;23;19925;-94
2022/07/25 16:34:09;;;;;;;;;;;;;;;13.98;100.00;99201.63;6125779;23;19948;-92
2022/07/25 16:36:37;;;;;;;;;;;;;;;13.94;100.00;99195.63;6125557;23;19984;-95
2022/07/25 16:42:16;;;;;;;;;;;;;;;13.86;100.00;99200.63;6149885;22;19921;-91
2022/07/25 16:45:14;;;;;;;;;;;;;;;13.88;100.00;99201.41;6150726;23;19916;-93
2022/07/25 16:47:47;;;;;;;;;;;;;;;14.12;100.00;99216.69;6126152;23;19916;-92
2022/07/25 16:50:16;;;;;;;;;;;;;;;13.97;100.00;99206.09;6151512;23;19938;-94
2022/07/25 16:52:47;;;;;;;;;;;;;;;13.81;100.00;99208.91;6125216;23;19920;-94
2022/07/25 16:55:12;;;;;;;;;;;;;;;14.06;100.00;99209.13;6125309;23;19919;-94
2022/07/25 17:03:38;;;;;;;;;;;;;;;13.86;100.00;99221.91;6197227;23;19916;-92
2022/07/25 17:06:48;;;;;;;;;;;;;;;;;;;;;
2022/07/25 17:23:23;;;;;;;;;;;;;;;14.18;100.00;99216.28;6170962;22;19921;-92
2022/07/25 18:31:57;;;;;;;;;;;;;;;;;;;;;
2022/07/25 18:54:15;;;;;;;;;;;;;;;13.30;100.00;99250.34;6324753;22;19910;-89
2022/07/25 18:56:53;;;;;;;;;;;;;;;;;;;;;
2022/07/25 18:59:34;;;;;;;;;;;;;;;13.26;100.00;99253.19;6337433;22;20001;-89
2022/07/25 19:08:12;;;;;;;;;;;;;;;13.23;100.00;99250.72;6301977;22;19911;-89
2022/07/25 19:11:12;;;;;;;;;;;;;;;13.31;100.00;99255.56;6312349;22;19915;-89
2022/07/25 19:13:50;;;;;;;;;;;;;;;13.24;100.00;99257.75;6339536;22;19915;-90
2022/07/25 19:16:19;;;;;;;;;;;;;;;13.11;100.00;99259.44;6339587;22;19932;-88
2022/07/25 19:19:04;;;;;;;;;;;;;;;13.13;100.00;99262.03;6339346;22;19918;-90
2022/07/25 19:21:32;;;;;;;;;;;;;;;13.27;100.00;99262.00;6338949;22;19914;-88
2022/07/25 19:24:00;;;;;;;;;;;;;;;13.24;100.00;99267.53;6311096;22;19987;-90
2022/07/25 19:27:01;;;;;;;;;;;;;;;;;;;;;
2022/07/25 19:29:59;;;;;;;;;;;;;;;;;;;;;
2022/07/25 19:32:50;;;;;;;;;;;;;;;13.30;100.00;99271.63;6297596;22;19924;-90
2022/07/25 19:35:51;;;;;;;;;;;;;;;;;;;;;
2022/07/25 19:38:30;;;;;;;;;;;;;;;13.33;100.00;99274.13;6339358;22;20002;-89
2022/07/25 19:41:13;;;;;;;;;;;;;;;13.39;100.00;99276.41;6337865;22;19911;-88
2022/07/25 19:43:49;;;;;;;;;;;;;;;13.40;100.00;99278.09;6339728;22;19911;-89
